Time;durP1;ratioP1;P1;durP2;ratioP2;P2;SDS_P1;SDS_P2;PMS_P1;PMS_P2;Temp;Humidity;BMP_temperature;BMP_pressure;BME280_temperature;BME280_humidity;BME280_pressure;Samples;Min_cycle;Max_cycle;Signal;HPM_P1;HPM_P2
2023/03/09 04:02:28;;;;;;;22.63;10.93;;;1.40;99.90;;;;;;6302607;22;20023;-75
2023/03/09 04:04:54;;;;;;;18.80;9.90;;;1.30;99.90;;;;;;6308010;22;20012;-76
2023/03/09 04:07:19;;;;;;;22.67;10.05;;;1.30;99.90;;;;;;6279977;22;20015;-76
2023/03/09 04:09:45;;;;;;;21.85;9.85;;;1.30;99.90;;;;;;6280007;22;20341;-76
2023/03/09 04:12:11;;;;;;;17.95;9.55;;;1.30;99.90;;;;;;6280235;22;20340;-76
2023/03/09 04:14:37;;;;;;;22.48;10.32;;;1.30;99.90;;;;;;6280028;22;20035;-77
2023/03/09 04:17:03;;;;;;;20.60;9.60;;;1.30;99.90;;;;;;6280139;22;20085;-76
2023/03/09 04:19:28;;;;;;;20.48;9.55;;;1.30;99.90;;;;;;6308387;22;20049;-75
2023/03/09 04:21:54;;;;;;;20.98;9.77;;;1.30;99.90;;;;;;6282892;22;20149;-76
2023/03/09 04:24:20;;;;;;;22.20;10.25;;;1.30;99.90;;;;;;6310626;22;20058;-79
2023/03/09 04:26:45;;;;;;;23.48;10.38;;;1.30;99.90;;;;;;6310082;22;20019;-76
2023/03/09 04:29:11;;;;;;;21.17;10.70;;;1.30;99.90;;;;;;6282720;22;20007;-76
2023/03/09 04:31:36;;;;;;;20.67;11.10;;;1.30;99.90;;;;;;6282667;22;20007;-76
2023/03/09 04:34:02;;;;;;;22.13;11.30;;;1.30;99.90;;;;;;6282250;22;20008;-75
2023/03/09 04:36:28;;;;;;;21.83;10.57;;;1.30;99.90;;;;;;6283104;22;20039;-77
2023/03/09 04:38:53;;;;;;;19.92;9.80;;;1.30;99.90;;;;;;6309891;22;20007;-77
2023/03/09 04:41:19;;;;;;;21.13;9.93;;;1.30;99.90;;;;;;6282360;22;20015;-76
2023/03/09 04:43:46;;;;;;;22.05;10.88;;;1.30;99.90;;;;;;6310190;22;20015;-78
2023/03/09 04:46:12;;;;;;;22.75;10.43;;;1.30;99.90;;;;;;6282992;22;20371;-75
2023/03/09 04:48:38;;;;;;;22.52;10.95;;;1.30;99.90;;;;;;6310353;22;20011;-77
2023/03/09 04:51:04;;;;;;;22.05;10.95;;;1.30;99.90;;;;;;6282994;22;20433;-78
2023/03/09 04:53:29;;;;;;;25.58;12.25;;;1.30;99.90;;;;;;6310115;22;20019;-76
2023/03/09 04:55:55;;;;;;;23.77;10.65;;;1.30;99.90;;;;;;6282447;22;20011;-77
2023/03/09 04:58:21;;;;;;;24.30;11.40;;;1.20;99.90;;;;;;6283011;22;20019;-76
2023/03/09 05:00:46;;;;;;;23.55;11.32;;;1.30;99.90;;;;;;6282779;22;20022;-77
2023/03/09 05:03:12;;;;;;;26.00;12.10;;;1.30;99.90;;;;;;6282966;22;20015;-77
2023/03/09 05:05:38;;;;;;;27.90;11.27;;;1.20;99.90;;;;;;6309572;22;20015;-76
2023/03/09 05:08:04;;;;;;;27.33;11.90;;;1.20;99.90;;;;;;6309945;22;20014;-77
2023/03/09 05:10:29;;;;;;;27.17;12.68;;;1.20;99.90;;;;;;6282196;22;20012;-76
2023/03/09 05:12:55;;;;;;;24.45;11.85;;;1.20;99.90;;;;;;6309476;22;20015;-75
2023/03/09 05:15:20;;;;;;;28.20;12.57;;;1.20;99.90;;;;;;6309965;22;20099;-75
2023/03/09 05:17:46;;;;;;;28.33;12.60;;;1.20;99.90;;;;;;6309096;22;20022;-76
2023/03/09 05:20:13;;;;;;;25.25;11.85;;;1.20;99.90;;;;;;6309424;22;20086;-75
2023/03/09 05:22:39;;;;;;;26.40;12.52;;;1.20;99.90;;;;;;6309915;22;20073;-75
2023/03/09 05:25:05;;;;;;;27.92;12.00;;;1.20;99.90;;;;;;6282020;22;20409;-76
2023/03/09 05:27:31;;;;;;;25.30;12.77;;;1.20;99.90;;;;;;6309129;22;20164;-75
2023/03/09 05:29:57;;;;;;;25.63;11.73;;;1.20;99.90;;;;;;6308997;22;20105;-76
2023/03/09 05:32:23;;;;;;;29.55;12.80;;;1.20;99.90;;;;;;6280924;22;20015;-75
2023/03/09 05:34:48;;;;;;;29.73;13.93;;;1.20;99.90;;;;;;6281423;22;20068;-76
2023/03/09 05:37:14;;;;;;;28.05;12.40;;;1.20;99.90;;;;;;6281592;22;20069;-75
2023/03/09 05:39:39;;;;;;;29.05;13.95;;;1.20;99.90;;;;;;6308759;22;20459;-76
2023/03/09 05:42:05;;;;;;;27.58;12.95;;;1.20;99.90;;;;;;6255628;22;20086;-75
2023/03/09 05:44:31;;;;;;;27.33;12.68;;;1.20;99.90;;;;;;6281237;22;20421;-76
2023/03/09 05:46:57;;;;;;;31.65;13.55;;;1.20;99.90;;;;;;6282542;22;20104;-76
2023/03/09 05:49:27;;;;;;;27.75;13.27;;;1.20;99.90;;;;;;6255805;22;20007;-76
2023/03/09 05:51:56;;;;;;;32.58;13.88;;;1.20;99.90;;;;;;6308854;22;20064;-75
2023/03/09 05:54:22;;;;;;;28.40;12.98;;;1.30;99.90;;;;;;6255999;22;20415;-75
2023/03/09 05:56:48;;;;;;;31.25;13.93;;;1.30;99.90;;;;;;6281865;22;20011;-75
2023/03/09 05:59:14;;;;;;;30.05;13.77;;;1.30;99.90;;;;;;6281646;22;20088;-76
2023/03/09 06:01:39;;;;;;;29.85;13.30;;;1.30;99.90;;;;;;6281720;22;20015;-74
2023/03/09 06:04:05;;;;;;;32.75;14.75;;;1.30;99.90;;;;;;6309084;22;20336;-75
2023/03/09 06:06:32;;;;;;;28.15;14.00;;;1.30;99.90;;;;;;6281213;22;20015;-77
2023/03/09 06:08:58;;;;;;;29.05;13.40;;;1.30;99.90;;;;;;6281125;22;20022;-77
2023/03/09 06:11:23;;;;;;;30.55;13.32;;;1.30;99.90;;;;;;6308685;22;20007;-77
2023/03/09 06:13:53;;;;;;;31.70;13.93;;;1.30;99.90;;;;;;6281266;22;20011;-76
2023/03/09 06:16:19;;;;;;;31.58;14.32;;;1.30;99.90;;;;;;6281476;22;20008;-77
2023/03/09 06:18:45;;;;;;;29.92;13.75;;;1.30;99.90;;;;;;6255232;22;20436;-76
2023/03/09 06:21:11;;;;;;;27.05;12.38;;;1.30;99.90;;;;;;6308778;22;20011;-77
2023/03/09 06:23:37;;;;;;;33.80;14.25;;;1.30;99.90;;;;;;6280837;22;20015;-76
2023/03/09 06:26:05;;;;;;;32.63;14.90;;;1.40;99.90;;;;;;6308492;22;20320;-76
2023/03/09 06:28:31;;;;;;;32.08;14.68;;;1.40;99.90;;;;;;6280853;22;20436;-77
2023/03/09 06:30:57;;;;;;;28.40;13.30;;;1.30;99.90;;;;;;6280739;22;20130;-77
2023/03/09 06:33:22;;;;;;;31.85;14.45;;;1.40;99.90;;;;;;6280517;22;20049;-76
2023/03/09 06:35:48;;;;;;;34.25;14.85;;;1.40;99.90;;;;;;6308689;22;20015;-76
2023/03/09 06:38:14;;;;;;;32.45;14.05;;;1.40;99.90;;;;;;6308715;22;20015;-76
2023/03/09 06:40:39;;;;;;;33.58;13.90;;;1.40;99.90;;;;;;6280784;22;20096;-76
2023/03/09 06:43:05;;;;;;;33.10;15.32;;;1.40;99.90;;;;;;6308475;22;20053;-77
2023/03/09 06:45:32;;;;;;;33.20;15.25;;;1.40;99.90;;;;;;6280961;22;20016;-75
2023/03/09 06:47:58;;;;;;;34.10;14.55;;;1.50;99.90;;;;;;6308097;22;20090;-76
2023/03/09 06:50:25;;;;;;;31.10;13.90;;;1.40;99.90;;;;;;6254736;22;20038;-74
2023/03/09 06:52:52;;;;;;;30.52;13.95;;;1.50;99.90;;;;;;6281450;22;20038;-75
2023/03/09 06:55:18;;;;;;;40.38;15.27;;;1.50;99.90;;;;;;6307597;22;20284;-74
2023/03/09 06:57:44;;;;;;;32.45;14.52;;;1.60;99.90;;;;;;6307845;22;20136;-74
2023/03/09 07:00:11;;;;;;;32.38;14.30;;;1.60;99.90;;;;;;6280404;22;20023;-75
2023/03/09 07:02:38;;;;;;;30.60;14.30;;;1.70;99.90;;;;;;6306028;22;20077;-74
2023/03/09 07:05:05;;;;;;;29.35;14.00;;;1.70;99.90;;;;;;6278358;22;20019;-75
2023/03/09 07:07:31;;;;;;;28.60;13.15;;;1.80;99.90;;;;;;6280138;22;20015;-75
2023/03/09 07:09:57;;;;;;;28.17;13.07;;;1.80;99.90;;;;;;6280410;22;20007;-75
2023/03/09 07:12:23;;;;;;;30.42;13.73;;;1.80;99.90;;;;;;6280194;22;20038;-75
2023/03/09 07:14:48;;;;;;;27.90;12.88;;;1.80;99.90;;;;;;6280506;22;20318;-75
2023/03/09 07:17:14;;;;;;;26.50;12.50;;;1.90;99.90;;;;;;6308549;22;20021;-74
2023/03/09 07:19:40;;;;;;;24.17;12.00;;;1.90;99.90;;;;;;6280527;22;20072;-75
2023/03/09 07:22:07;;;;;;;23.70;11.55;;;1.90;99.90;;;;;;6280101;22;20494;-74
2023/03/09 07:24:36;;;;;;;23.60;11.40;;;1.90;99.90;;;;;;6279914;22;20015;-76
2023/03/09 07:27:02;;;;;;;34.78;13.48;;;1.90;99.90;;;;;;6280228;22;20435;-72
2023/03/09 07:29:28;;;;;;;22.63;11.40;;;1.90;99.90;;;;;;6307741;22;20007;-73
2023/03/09 07:31:54;;;;;;;24.05;12.15;;;1.90;99.90;;;;;;6307558;22;20329;-74
2023/03/09 07:34:20;;;;;;;35.33;14.05;;;2.00;99.90;;;;;;6307825;22;20041;-76
2023/03/09 07:36:47;;;;;;;27.52;11.80;;;2.00;99.90;;;;;;6307867;22;20007;-77
2023/03/09 07:39:12;;;;;;;29.70;12.18;;;2.10;99.90;;;;;;6280255;22;20015;-76
2023/03/09 07:41:38;;;;;;;26.52;12.30;;;2.20;99.90;;;;;;6307572;22;20008;-75
2023/03/09 07:44:04;;;;;;;24.98;11.30;;;2.20;99.90;;;;;;6280451;22;20011;-76
2023/03/09 07:46:29;;;;;;;36.97;13.73;;;2.30;99.90;;;;;;6281004;22;20340;-74
2023/03/09 07:48:55;;;;;;;28.75;12.48;;;2.30;99.90;;;;;;6280162;22;20344;-76
2023/03/09 07:51:21;;;;;;;23.95;12.68;;;2.30;99.90;;;;;;6280254;22;20089;-75
2023/03/09 07:53:47;;;;;;;48.28;16.02;;;2.30;99.90;;;;;;6279965;22;20015;-75
2023/03/09 07:56:13;;;;;;;25.00;12.38;;;2.30;99.90;;;;;;6280259;22;20011;-75
2023/03/09 07:58:39;;;;;;;23.88;11.82;;;2.30;99.90;;;;;;6307970;22;20018;-75
2023/03/09 08:01:12;;;;;;;24.23;11.27;;;2.30;99.90;;;;;;6274845;22;20418;-76
2023/03/09 08:03:37;;;;;;;22.63;11.30;;;2.40;99.90;;;;;;6275567;22;20008;-76
2023/03/09 08:06:05;;;;;;;24.10;11.23;;;2.40;99.90;;;;;;6277417;22;20062;-75
2023/03/09 08:08:32;;;;;;;26.15;12.35;;;2.50;99.90;;;;;;6276568;22;20061;-75
2023/03/09 08:10:58;;;;;;;25.60;12.23;;;2.50;99.90;;;;;;6276206;22;20012;-77
2023/03/09 08:13:24;;;;;;;22.17;11.18;;;2.60;99.90;;;;;;6277749;22;20307;-78
2023/03/09 08:15:51;;;;;;;23.13;11.45;;;2.60;99.90;;;;;;6249507;22;20011;-76
2023/03/09 08:18:18;;;;;;;24.83;11.80;;;2.60;99.90;;;;;;6275678;22;20055;-77
2023/03/09 08:20:44;;;;;;;22.17;11.40;;;2.60;99.90;;;;;;6276871;22;20065;-76
2023/03/09 08:23:10;;;;;;;24.60;12.32;;;2.60;99.90;;;;;;6278661;22;20058;-82
2023/03/09 08:25:36;;;;;;;23.10;12.20;;;2.70;99.90;;;;;;6276523;22;20012;-78
2023/03/09 08:28:03;;;;;;;21.90;11.05;;;2.70;99.90;;;;;;6276379;22;20023;-78
2023/03/09 08:30:29;;;;;;;23.77;11.68;;;2.70;99.90;;;;;;6276370;22;20087;-82
2023/03/09 08:32:55;;;;;;;23.65;11.77;;;2.80;99.90;;;;;;6276477;22;20092;-77
2023/03/09 08:35:27;;;;;;;24.70;12.25;;;2.80;99.90;;;;;;6276046;22;20012;-76
2023/03/09 08:37:52;;;;;;;20.20;10.88;;;2.80;99.90;;;;;;6275757;22;20077;-77
2023/03/09 08:40:18;;;;;;;20.58;10.23;;;2.80;99.90;;;;;;6275212;22;20437;-77
2023/03/09 08:42:43;;;;;;;21.63;11.30;;;2.90;99.90;;;;;;6277247;22;20008;-77
2023/03/09 08:45:10;;;;;;;24.42;12.50;;;3.00;99.90;;;;;;6275765;22;20008;-77
2023/03/09 08:47:36;;;;;;;22.30;10.77;;;3.10;99.90;;;;;;6250133;22;20023;-76
2023/03/09 08:50:03;;;;;;;20.90;11.15;;;3.10;99.90;;;;;;6276045;22;20012;-77
2023/03/09 08:52:34;;;;;;;22.98;11.20;;;3.20;99.90;;;;;;6275803;22;20012;-76
2023/03/09 08:55:00;;;;;;;22.25;11.23;;;3.30;99.90;;;;;;6276138;22;20444;-76
2023/03/09 08:57:27;;;;;;;21.45;11.32;;;3.30;99.90;;;;;;6276406;22;20091;-75
2023/03/09 08:59:52;;;;;;;23.48;11.85;;;3.30;99.90;;;;;;6277025;22;20015;-77
2023/03/09 09:02:18;;;;;;;26.73;13.43;;;3.40;99.90;;;;;;6303360;22;20011;-77
2023/03/09 09:04:44;;;;;;;22.08;11.40;;;3.40;99.90;;;;;;6281380;22;20461;-79
2023/03/09 09:07:14;;;;;;;21.45;10.80;;;3.50;99.90;;;;;;6281570;22;20012;-77
2023/03/09 09:09:43;;;;;;;21.83;10.82;;;3.50;99.90;;;;;;6284021;22;20015;-76
2023/03/09 09:12:10;;;;;;;21.83;11.65;;;3.60;99.90;;;;;;6283171;22;20367;-77
2023/03/09 09:14:39;;;;;;;19.98;10.52;;;3.60;99.90;;;;;;6283933;22;20093;-77
2023/03/09 09:17:08;;;;;;;18.17;9.75;;;3.70;99.90;;;;;;6311445;22;20389;-75
2023/03/09 09:19:38;;;;;;;19.00;10.23;;;3.70;99.90;;;;;;6283346;22;20017;-77
2023/03/09 09:22:05;;;;;;;18.75;11.00;;;3.80;99.90;;;;;;6327286;22;20015;-73
2023/03/09 09:24:32;;;;;;;18.50;10.85;;;3.80;99.90;;;;;;6322885;22;20007;-74
2023/03/09 09:26:59;;;;;;;22.13;10.70;;;3.80;99.90;;;;;;6282988;22;20019;-75
2023/03/09 09:29:26;;;;;;;18.77;10.68;;;3.80;99.90;;;;;;6282995;22;20091;-77
2023/03/09 09:31:52;;;;;;;21.70;10.35;;;3.80;99.90;;;;;;6310321;22;20007;-75
2023/03/09 09:34:18;;;;;;;21.08;10.75;;;3.80;99.90;;;;;;6283109;22;20022;-75
2023/03/09 09:36:45;;;;;;;19.60;10.10;;;3.80;99.90;;;;;;6310600;22;20328;-76
2023/03/09 09:39:14;;;;;;;21.25;10.77;;;3.80;99.90;;;;;;6310824;22;20413;-75
2023/03/09 09:41:46;;;;;;;19.35;11.07;;;3.80;99.90;;;;;;6282945;22;20054;-76
2023/03/09 09:44:26;;;;;;;20.60;10.52;;;3.90;99.90;;;;;;6282765;22;20011;-77
2023/03/09 09:46:54;;;;;;;20.77;11.73;;;3.90;99.90;;;;;;6310563;22;20021;-75
2023/03/09 09:49:24;;;;;;;24.00;11.18;;;3.90;99.90;;;;;;6282868;22;20015;-77
2023/03/09 09:52:11;;;;;;;19.65;10.68;;;4.00;99.90;;;;;;6283057;22;20007;-76
2023/03/09 09:54:52;;;;;;;18.88;10.05;;;4.00;99.90;;;;;;6281911;22;20017;-76
2023/03/09 09:57:23;;;;;;;18.67;10.02;;;4.00;99.90;;;;;;6310561;22;20060;-77
2023/03/09 10:00:04;;;;;;;17.52;9.25;;;4.00;99.90;;;;;;6282251;22;20015;-75
2023/03/09 10:02:57;;;;;;;17.13;9.95;;;4.00;99.90;;;;;;6277063;22;20023;-76
2023/03/09 10:05:33;;;;;;;17.63;9.68;;;4.00;99.90;;;;;;6277360;22;20022;-75
2023/03/09 10:08:30;;;;;;;18.67;10.90;;;4.00;99.90;;;;;;6277329;22;20023;-76
2023/03/09 10:11:06;;;;;;;20.10;11.25;;;4.10;99.90;;;;;;6277976;22;20351;-76
2023/03/09 10:13:44;;;;;;;17.15;9.95;;;4.10;99.90;;;;;;6277489;22;20008;-76
2023/03/09 10:16:20;;;;;;;30.95;15.13;;;4.00;99.90;;;;;;6251277;22;20086;-77
2023/03/09 10:19:02;;;;;;;18.38;10.70;;;4.10;99.90;;;;;;6277190;22;20043;-77
2023/03/09 10:21:42;;;;;;;16.73;9.50;;;4.10;99.90;;;;;;6278205;22;20014;-77
2023/03/09 10:24:24;;;;;;;20.23;10.43;;;4.20;99.90;;;;;;6277282;22;20294;-77
2023/03/09 10:27:18;;;;;;;18.90;10.20;;;4.20;99.90;;;;;;6251427;22;20007;-76
2023/03/09 10:30:20;;;;;;;18.27;10.18;;;4.20;99.90;;;;;;6278568;22;20043;-78
2023/03/09 10:32:59;;;;;;;16.70;9.30;;;4.30;99.90;;;;;;6278409;22;20082;-76
2023/03/09 10:35:43;;;;;;;15.95;9.38;;;4.30;99.90;;;;;;6278901;22;20030;-78
2023/03/09 10:38:18;;;;;;;16.45;8.88;;;4.40;99.90;;;;;;6276254;22;20122;-77
2023/03/09 10:40:47;;;;;;;16.02;9.23;;;4.40;99.90;;;;;;6276171;22;20011;-77
2023/03/09 10:43:28;;;;;;;17.30;8.73;;;4.40;99.90;;;;;;6276618;22;20015;-78
2023/03/09 10:45:55;;;;;;;15.88;9.10;;;4.50;99.90;;;;;;6276095;22;20016;-76
2023/03/09 10:48:26;;;;;;;18.38;9.95;;;4.50;99.90;;;;;;6278104;22;20366;-78
2023/03/09 10:50:58;;;;;;;17.00;10.48;;;4.60;99.90;;;;;;6276618;22;20093;-75
2023/03/09 10:53:35;;;;;;;18.88;10.27;;;4.60;99.90;;;;;;6278147;22;20151;-76
2023/03/09 10:56:12;;;;;;;17.95;9.68;;;4.60;99.90;;;;;;6276514;22;20016;-78
2023/03/09 10:58:38;;;;;;;15.70;9.20;;;4.60;99.90;;;;;;6277263;22;20019;-76
2023/03/09 11:01:19;;;;;;;14.10;8.50;;;4.60;99.90;;;;;;6287751;22;20007;-76
2023/03/09 11:03:45;;;;;;;16.77;9.43;;;4.70;99.90;;;;;;6282459;22;20417;-76
2023/03/09 11:06:25;;;;;;;16.45;9.13;;;4.70;99.90;;;;;;6256013;22;20020;-76
2023/03/09 11:09:00;;;;;;;16.80;9.55;;;4.80;99.90;;;;;;6309400;22;20042;-76
2023/03/09 11:11:27;;;;;;;17.23;9.70;;;4.80;99.90;;;;;;6255850;22;20012;-78
2023/03/09 11:13:54;;;;;;;18.60;10.02;;;4.80;99.90;;;;;;6281417;22;20082;-76
2023/03/09 11:16:26;;;;;;;18.98;10.23;;;4.90;99.90;;;;;;6308719;22;20011;-77
2023/03/09 11:19:13;;;;;;;17.88;10.13;;;4.90;99.90;;;;;;6281783;22;20081;-77
2023/03/09 11:21:57;;;;;;;16.98;9.65;;;4.90;99.90;;;;;;6281286;22;20337;-78
2023/03/09 11:24:37;;;;;;;16.08;9.48;;;4.80;99.90;;;;;;6281142;22;20007;-76
2023/03/09 11:27:18;;;;;;;16.35;9.40;;;4.80;99.90;;;;;;6280963;22;20332;-77
2023/03/09 11:30:04;;;;;;;16.27;9.82;;;4.70;99.90;;;;;;6281009;22;20050;-77
2023/03/09 11:32:29;;;;;;;16.63;9.45;;;4.70;99.90;;;;;;6281362;22;20332;-78
2023/03/09 11:34:55;;;;;;;18.60;9.70;;;4.70;99.90;;;;;;6255922;22;20011;-75
2023/03/09 11:37:48;;;;;;;17.00;9.63;;;4.80;99.90;;;;;;6309238;22;20015;-76
2023/03/09 11:40:17;;;;;;;16.95;9.60;;;4.90;99.90;;;;;;6309267;22;20022;-77
2023/03/09 11:42:55;;;;;;;16.05;9.52;;;4.90;99.90;;;;;;6308895;22;20059;-78
2023/03/09 11:45:29;;;;;;;17.92;10.15;;;4.90;99.90;;;;;;6280932;22;20011;-77
2023/03/09 11:48:04;;;;;;;16.85;9.73;;;4.90;99.90;;;;;;6308457;22;20133;-77
2023/03/09 11:50:36;;;;;;;17.40;10.37;;;4.90;99.90;;;;;;6281401;22;20314;-76
2023/03/09 11:53:17;;;;;;;16.15;9.80;;;5.00;99.90;;;;;;6255473;22;20218;-76
2023/03/09 11:55:46;;;;;;;17.38;9.57;;;4.90;99.90;;;;;;6280813;22;20018;-77
2023/03/09 11:58:19;;;;;;;16.63;9.73;;;4.90;99.90;;;;;;6281417;22;20015;-74
2023/03/09 12:00:51;;;;;;;17.15;9.75;;;4.90;99.90;;;;;;6308442;22;20049;-77
2023/03/09 12:03:19;;;;;;;16.77;10.30;;;4.80;99.90;;;;;;6308798;22;20034;-78
2023/03/09 12:05:59;;;;;;;17.38;9.98;;;4.70;99.90;;;;;;6281245;22;20059;-77
2023/03/09 12:08:43;;;;;;;19.05;10.75;;;4.70;99.90;;;;;;6255595;22;20448;-75
2023/03/09 12:11:11;;;;;;;18.30;10.10;;;4.70;99.90;;;;;;6281079;22;20007;-77
2023/03/09 12:13:47;;;;;;;18.85;10.20;;;4.80;99.90;;;;;;6309023;22;20007;-76
2023/03/09 12:16:26;;;;;;;17.13;9.55;;;4.70;99.90;;;;;;6281303;22;20039;-77
2023/03/09 12:18:58;;;;;;;16.20;9.13;;;4.70;99.90;;;;;;6281156;22;20003;-76
2023/03/09 12:21:46;;;;;;;16.52;9.48;;;4.70;99.90;;;;;;6308918;22;20039;-75
2023/03/09 12:24:30;;;;;;;16.40;9.20;;;4.60;99.90;;;;;;6281181;22;20433;-75
2023/03/09 12:27:04;;;;;;;18.30;10.13;;;4.60;99.90;;;;;;6255496;22;20494;-78
2023/03/09 12:29:41;;;;;;;17.40;9.75;;;4.60;99.90;;;;;;6281347;22;20012;-77
2023/03/09 12:32:18;;;;;;;19.25;10.55;;;4.60;99.90;;;;;;6281087;22;20011;-76
2023/03/09 12:34:46;;;;;;;19.25;10.25;;;4.60;99.90;;;;;;6255562;22;20015;-76
2023/03/09 12:37:51;;;;;;;19.92;11.55;;;4.70;99.90;;;;;;6307966;22;20034;-75
2023/03/09 12:40:20;;;;;;;18.10;10.75;;;4.70;99.90;;;;;;6281224;22;20034;-75
2023/03/09 12:42:51;;;;;;;19.45;11.02;;;4.80;99.90;;;;;;6282634;22;20046;-74
2023/03/09 12:45:16;;;;;;;16.73;10.05;;;4.80;99.90;;;;;;6282868;22;20064;-74
2023/03/09 12:47:44;;;;;;;18.15;10.15;;;4.90;99.90;;;;;;6309567;22;20019;-76
2023/03/09 12:50:40;;;;;;;17.33;9.90;;;4.90;99.90;;;;;;6283074;22;20404;-73
2023/03/09 12:53:16;;;;;;;18.05;10.18;;;5.00;99.90;;;;;;6257113;22;20076;-76
2023/03/09 12:55:49;;;;;;;18.90;10.82;;;5.00;99.90;;;;;;6282840;22;20007;-75
2023/03/09 12:58:20;;;;;;;18.98;10.02;;;5.00;99.90;;;;;;6282657;22;20022;-76
2023/03/09 13:00:50;;;;;;;17.58;10.25;;;5.00;99.90;;;;;;6309436;22;20011;-78
2023/03/09 13:03:31;;;;;;;20.48;11.05;;;5.00;99.90;;;;;;6310214;22;20076;-74
2023/03/09 13:05:59;;;;;;;17.95;10.63;;;5.10;99.90;;;;;;6256762;22;20011;-75
2023/03/09 13:08:32;;;;;;;19.95;11.02;;;5.10;99.90;;;;;;6282058;22;20016;-77
2023/03/09 13:11:23;;;;;;;19.48;10.63;;;5.00;99.90;;;;;;6281941;22;20118;-76
2023/03/09 13:13:49;;;;;;;20.45;11.43;;;5.00;99.90;;;;;;6282004;22;20376;-77
2023/03/09 13:16:37;;;;;;;20.88;11.40;;;4.90;99.90;;;;;;6282601;22;20105;-76
2023/03/09 13:19:17;;;;;;;17.98;10.75;;;4.90;99.90;;;;;;6309806;22;20007;-76
2023/03/09 13:21:55;;;;;;;18.08;10.75;;;4.80;99.90;;;;;;6309952;22;20007;-77
2023/03/09 13:24:21;;;;;;;19.08;10.95;;;4.80;99.90;;;;;;6282722;22;20069;-76
2023/03/09 13:26:49;;;;;;;18.42;10.32;;;4.80;99.90;;;;;;6283462;22;20023;-76
2023/03/09 13:29:23;;;;;;;19.90;11.23;;;4.80;99.90;;;;;;6309774;22;20437;-75
2023/03/09 13:31:50;;;;;;;17.85;10.32;;;4.70;99.90;;;;;;6282271;22;20078;-76
2023/03/09 13:34:35;;;;;;;18.83;10.48;;;4.70;99.90;;;;;;6282484;22;20018;-76
2023/03/09 13:37:05;;;;;;;18.08;9.85;;;4.70;99.90;;;;;;6310178;22;20096;-77
2023/03/09 13:39:32;;;;;;;18.77;10.48;;;4.70;99.90;;;;;;6309976;22;20011;-77
2023/03/09 13:42:03;;;;;;;18.13;10.25;;;4.70;99.90;;;;;;6281774;22;20015;-76
2023/03/09 13:44:29;;;;;;;19.73;11.18;;;4.60;99.90;;;;;;6310304;22;20011;-75
2023/03/09 13:46:58;;;;;;;21.75;11.77;;;4.60;99.90;;;;;;6282335;22;20551;-75
2023/03/09 13:49:29;;;;;;;21.45;12.23;;;4.50;99.90;;;;;;6282145;22;20011;-76
2023/03/09 13:52:01;;;;;;;22.23;12.25;;;4.40;99.90;;;;;;6309430;22;20007;-75
2023/03/09 13:54:33;;;;;;;21.77;11.82;;;4.30;99.90;;;;;;6310435;22;20375;-76
2023/03/09 13:57:13;;;;;;;24.40;12.52;;;4.30;99.90;;;;;;6256244;22;20113;-75
2023/03/09 14:00:09;;;;;;;21.90;11.88;;;4.20;99.90;;;;;;6281753;22;20073;-77
2023/03/09 14:02:37;;;;;;;22.23;11.77;;;4.20;99.90;;;;;;6276724;22;20016;-76
2023/03/09 14:05:05;;;;;;;23.75;12.70;;;4.20;99.90;;;;;;6279292;22;20055;-76
2023/03/09 14:07:42;;;;;;;23.17;12.90;;;4.10;99.90;;;;;;6277394;22;20515;-76
2023/03/09 14:10:22;;;;;;;25.70;13.68;;;4.10;99.90;;;;;;6279737;22;20334;-74
2023/03/09 14:12:54;;;;;;;26.63;13.48;;;4.00;99.90;;;;;;6281266;22;20041;-74
2023/03/09 14:15:20;;;;;;;27.02;13.95;;;4.00;99.90;;;;;;6287726;22;20012;-72
2023/03/09 14:17:47;;;;;;;26.00;13.45;;;4.00;99.90;;;;;;6258476;22;20069;-75
2023/03/09 14:20:21;;;;;;;28.80;14.07;;;3.90;99.90;;;;;;6277614;22;20426;-74
2023/03/09 14:22:47;;;;;;;26.27;13.70;;;3.90;99.90;;;;;;6278744;22;20085;-76
2023/03/09 14:25:24;;;;;;;27.90;13.77;;;3.80;99.90;;;;;;6276345;22;20501;-76
2023/03/09 14:27:51;;;;;;;28.15;13.65;;;3.80;99.90;;;;;;6276207;22;20016;-75
2023/03/09 14:30:44;;;;;;;26.88;13.23;;;3.70;99.90;;;;;;6276002;22;20047;-75
2023/03/09 14:33:32;;;;;;;28.92;14.48;;;3.70;99.90;;;;;;6272853;22;20387;-76
2023/03/09 14:36:06;;;;;;;27.27;14.02;;;3.70;99.90;;;;;;6276661;22;20012;-77
2023/03/09 14:38:32;;;;;;;30.45;15.35;;;3.70;99.90;;;;;;6276713;22;20389;-75
2023/03/09 14:41:12;;;;;;;31.27;14.80;;;3.70;99.90;;;;;;6275832;22;20072;-76
2023/03/09 14:43:42;;;;;;;30.25;14.30;;;3.70;99.90;;;;;;6276230;22;20016;-75
2023/03/09 14:46:18;;;;;;;28.58;14.13;;;3.60;99.90;;;;;;6277387;22;20370;-75
2023/03/09 14:48:45;;;;;;;32.45;14.43;;;3.60;99.90;;;;;;6276074;22;20016;-77
2023/03/09 14:51:32;;;;;;;30.90;14.75;;;3.60;99.90;;;;;;6276785;22;20008;-75
2023/03/09 14:54:10;;;;;;;28.90;14.20;;;3.60;99.90;;;;;;6250619;22;20039;-75
2023/03/09 14:56:35;;;;;;;31.70;15.73;;;3.60;99.90;;;;;;6278080;22;20011;-76
2023/03/09 14:59:11;;;;;;;31.95;15.73;;;3.60;99.90;;;;;;6276221;22;20008;-77
2023/03/09 15:01:39;;;;;;;27.70;13.75;;;3.60;99.90;;;;;;6275772;22;20015;-76
2023/03/09 15:04:15;;;;;;;31.23;15.23;;;3.60;99.90;;;;;;6275705;22;20429;-76
2023/03/09 15:06:40;;;;;;;31.60;14.25;;;3.60;99.90;;;;;;6275764;22;20056;-78
2023/03/09 15:09:06;;;;;;;33.03;16.08;;;3.50;99.90;;;;;;6276183;22;20094;-75
2023/03/09 15:11:32;;;;;;;36.53;16.08;;;3.60;99.90;;;;;;6275502;22;20370;-76
2023/03/09 15:13:59;;;;;;;34.95;15.65;;;3.50;99.90;;;;;;6275523;22;20148;-75
2023/03/09 15:16:25;;;;;;;30.90;14.70;;;3.50;99.90;;;;;;6275326;22;20039;-76
2023/03/09 15:18:51;;;;;;;34.58;15.70;;;3.60;99.90;;;;;;6276730;22;20080;-76
2023/03/09 15:21:17;;;;;;;36.35;16.92;;;3.60;99.90;;;;;;6275484;22;20011;-78
2023/03/09 15:23:42;;;;;;;32.53;16.35;;;3.70;99.90;;;;;;6275568;22;20008;-76
2023/03/09 15:26:08;;;;;;;34.75;16.27;;;3.70;99.90;;;;;;6275650;22;20011;-77
2023/03/09 15:28:34;;;;;;;35.30;15.98;;;3.70;99.90;;;;;;6277511;22;20055;-76
2023/03/09 15:31:00;;;;;;;33.50;15.68;;;3.70;99.90;;;;;;6278151;22;20007;-76
2023/03/09 15:33:27;;;;;;;35.42;16.65;;;3.70;99.90;;;;;;6277680;22;20007;-75
2023/03/09 15:35:53;;;;;;;37.40;16.27;;;3.70;99.90;;;;;;6277600;22;20011;-77
2023/03/09 15:38:19;;;;;;;39.00;17.55;;;3.70;99.90;;;;;;6250065;22;20023;-77
2023/03/09 15:40:45;;;;;;;37.45;16.13;;;3.60;99.90;;;;;;6275562;22;20016;-76
2023/03/09 15:43:10;;;;;;;36.58;16.90;;;3.70;99.90;;;;;;6275988;22;20019;-76
2023/03/09 15:45:41;;;;;;;35.92;15.65;;;3.60;99.90;;;;;;6277592;22;20020;-76
2023/03/09 15:48:06;;;;;;;38.00;17.55;;;3.60;99.90;;;;;;6276076;22;20020;-76
2023/03/09 15:50:35;;;;;;;35.85;16.65;;;3.60;99.90;;;;;;6277163;22;20011;-76
2023/03/09 15:53:00;;;;;;;35.95;16.10;;;3.60;99.90;;;;;;6277339;22;20074;-75
2023/03/09 15:55:26;;;;;;;38.35;16.33;;;3.50;99.90;;;;;;6277666;22;20012;-77
2023/03/09 15:57:52;;;;;;;37.05;16.50;;;3.60;99.90;;;;;;6275660;22;20015;-76
2023/03/09 16:00:18;;;;;;;39.17;17.00;;;3.50;99.90;;;;;;6275141;22;20091;-78
2023/03/09 16:02:43;;;;;;;38.00;16.95;;;3.50;99.90;;;;;;6280552;22;20464;-76
2023/03/09 16:05:10;;;;;;;38.60;16.80;;;3.50;99.90;;;;;;6254637;22;20011;-77
2023/03/09 16:07:35;;;;;;;37.15;15.77;;;3.40;99.90;;;;;;6280290;22;20020;-77
2023/03/09 16:10:01;;;;;;;39.70;16.98;;;3.40;99.90;;;;;;6280743;22;20046;-77
2023/03/09 16:12:27;;;;;;;36.83;16.52;;;3.40;99.90;;;;;;6308053;22;20401;-77
2023/03/09 16:14:52;;;;;;;32.17;15.55;;;3.30;99.90;;;;;;6281975;22;20125;-77
2023/03/09 16:17:18;;;;;;;41.25;17.52;;;3.30;99.90;;;;;;6258130;22;20337;-77
2023/03/09 16:19:46;;;;;;;38.13;16.73;;;3.20;99.90;;;;;;6283762;22;20019;-76
2023/03/09 16:22:12;;;;;;;37.75;16.30;;;3.20;99.90;;;;;;6311451;22;20078;-76
2023/03/09 16:24:37;;;;;;;37.08;16.35;;;3.20;99.90;;;;;;6283769;22;20007;-76
2023/03/09 16:27:03;;;;;;;40.28;15.45;;;3.10;99.90;;;;;;6283536;22;20019;-75
2023/03/09 16:29:31;;;;;;;39.78;16.90;;;3.10;99.90;;;;;;6283303;22;20025;-76
2023/03/09 16:31:56;;;;;;;38.13;17.00;;;3.00;99.90;;;;;;6283367;22;20082;-75
2023/03/09 16:34:22;;;;;;;40.22;16.30;;;3.00;99.90;;;;;;6310778;22;20096;-76
2023/03/09 16:36:48;;;;;;;37.55;16.20;;;2.90;99.90;;;;;;6311480;22;20011;-76
2023/03/09 16:39:15;;;;;;;40.33;15.65;;;2.80;99.90;;;;;;6311183;22;20011;-76
2023/03/09 16:41:41;;;;;;;41.03;17.20;;;2.80;99.90;;;;;;6283206;22;20436;-76
2023/03/09 16:44:17;;;;;;;44.10;16.58;;;2.80;99.90;;;;;;6283030;22;20097;-78
2023/03/09 16:46:43;;;;;;;39.63;15.75;;;2.70;99.90;;;;;;6282883;22;20090;-75
2023/03/09 16:49:10;;;;;;;42.47;16.88;;;2.60;99.90;;;;;;6283445;22;20011;-77
2023/03/09 16:51:36;;;;;;;44.00;16.73;;;2.60;99.90;;;;;;6282827;22;20479;-77
2023/03/09 16:54:01;;;;;;;42.90;16.85;;;2.50;99.90;;;;;;6283318;22;20019;-78